createdAt,value
2023-05-12T00:01:43.341Z,11.60
2023-05-12T00:04:10.940Z,11.70
2023-05-12T00:06:38.766Z,11.70
2023-05-12T00:09:06.429Z,11.80
2023-05-12T00:11:33.783Z,11.60
2023-05-12T00:14:01.093Z,11.70
2023-05-12T00:16:28.326Z,11.60
2023-05-12T00:18:55.686Z,11.50
2023-05-12T00:21:23.304Z,11.60
2023-05-12T00:23:50.592Z,11.60
2023-05-12T00:26:17.953Z,11.50
2023-05-12T00:28:45.607Z,11.40
2023-05-12T00:31:13.161Z,11.30
2023-05-12T00:33:41.510Z,11.30
2023-05-12T00:36:08.999Z,11.40
2023-05-12T00:38:37.513Z,11.40
2023-05-12T00:41:04.847Z,11.40
2023-05-12T00:43:32.168Z,11.30
2023-05-12T00:46:01.325Z,11.20
2023-05-12T00:48:28.625Z,11.20
2023-05-12T00:50:57.940Z,11.20
2023-05-12T00:53:27.762Z,11.00
2023-05-12T00:55:59.995Z,11.00
2023-05-12T00:58:27.300Z,10.90
2023-05-12T01:00:54.887Z,10.80
2023-05-12T01:03:22.481Z,10.80
2023-05-12T01:05:55.454Z,10.80
2023-05-12T01:08:23.483Z,10.70
2023-05-12T01:10:50.778Z,10.70
2023-05-12T01:13:18.033Z,10.60
2023-05-12T01:15:49.089Z,10.80
2023-05-12T01:18:19.941Z,10.70
2023-05-12T01:20:48.428Z,10.70
2023-05-12T01:23:19.453Z,10.60
2023-05-12T01:25:49.349Z,10.80
2023-05-12T01:28:18.456Z,10.70
2023-05-12T01:30:46.551Z,10.50
2023-05-12T01:33:14.508Z,10.40
2023-05-12T01:35:42.517Z,10.30
2023-05-12T01:38:09.858Z,10.20
2023-05-12T01:40:37.268Z,10.20
2023-05-12T01:43:04.934Z,10.20
2023-05-12T01:45:32.282Z,10.10
2023-05-12T01:47:59.747Z,10.10
2023-05-12T01:50:27.517Z,10.20
2023-05-12T01:52:54.690Z,10.10
2023-05-12T01:55:22.004Z,10.10
2023-05-12T01:57:49.172Z,10.10
2023-05-12T02:00:17.051Z,10.10
2023-05-12T02:02:44.376Z,10.20
2023-05-12T02:05:11.804Z,10.10
2023-05-12T02:07:39.184Z,10.00
2023-05-12T02:10:07.780Z,10.00
2023-05-12T02:12:35.139Z,10.00
2023-05-12T02:15:02.385Z,10.00
2023-05-12T02:17:29.642Z,9.90
2023-05-12T02:19:56.908Z,9.90
2023-05-12T02:22:24.093Z,9.90
2023-05-12T02:24:51.407Z,9.90
2023-05-12T02:27:18.645Z,9.80
2023-05-12T02:29:45.997Z,9.90
2023-05-12T02:32:13.462Z,9.70
2023-05-12T02:34:40.721Z,9.60
2023-05-12T02:37:08.000Z,9.60
2023-05-12T02:39:35.731Z,9.60
2023-05-12T02:42:03.582Z,9.50
2023-05-12T02:44:30.717Z,9.50
2023-05-12T02:46:58.171Z,9.50
2023-05-12T02:49:25.553Z,9.40
2023-05-12T02:51:52.809Z,9.50
2023-05-12T02:54:20.271Z,9.40
2023-05-12T02:56:47.617Z,9.40
2023-05-12T02:59:14.827Z,9.40
2023-05-12T03:01:42.144Z,9.50
2023-05-12T03:04:09.397Z,9.60
2023-05-12T03:06:36.834Z,9.60
2023-05-12T03:09:04.126Z,9.50
2023-05-12T03:11:31.648Z,9.60
2023-05-12T03:13:58.909Z,9.40
2023-05-12T03:16:26.157Z,9.40
2023-05-12T03:18:53.816Z,9.40
2023-05-12T03:21:21.269Z,9.30
2023-05-12T03:23:48.655Z,9.20
2023-05-12T03:26:16.255Z,9.30
2023-05-12T03:28:43.576Z,9.20
2023-05-12T03:31:11.374Z,9.30
2023-05-12T03:33:38.762Z,9.40
2023-05-12T03:36:07.017Z,9.40
2023-05-12T03:38:34.679Z,9.40
2023-05-12T03:41:08.461Z,9.30
2023-05-12T03:43:36.123Z,9.40
2023-05-12T03:46:03.978Z,9.50
2023-05-12T03:48:31.427Z,9.50
2023-05-12T03:50:58.765Z,9.60
2023-05-12T03:53:26.053Z,9.50
2023-05-12T03:55:53.246Z,9.80
2023-05-12T03:58:20.498Z,10.00
2023-05-12T04:00:50.002Z,10.20
2023-05-12T04:03:17.849Z,10.40
2023-05-12T04:05:45.338Z,10.60
2023-05-12T04:08:12.888Z,10.70
2023-05-12T04:10:41.075Z,10.80
2023-05-12T04:13:08.974Z,11.10
2023-05-12T04:15:36.706Z,11.10
2023-05-12T04:18:04.292Z,11.30
2023-05-12T04:20:31.687Z,11.30
2023-05-12T04:22:58.927Z,11.60
2023-05-12T04:25:26.684Z,11.70
2023-05-12T04:27:53.926Z,11.70
2023-05-12T04:30:22.408Z,11.90
2023-05-12T04:32:49.895Z,12.00
2023-05-12T04:35:17.245Z,12.30
2023-05-12T04:37:44.501Z,12.80
2023-05-12T04:40:11.920Z,13.60
2023-05-12T04:42:39.268Z,15.40
2023-05-12T04:45:07.523Z,17.00
2023-05-12T04:47:34.840Z,17.90
2023-05-12T04:50:02.119Z,18.00
2023-05-12T04:52:29.605Z,18.30
2023-05-12T04:54:56.854Z,18.90
2023-05-12T04:57:24.409Z,18.40
2023-05-12T04:59:51.717Z,19.30
2023-05-12T05:02:19.528Z,20.00
2023-05-12T05:04:47.103Z,19.80
2023-05-12T05:07:15.125Z,19.60
2023-05-12T05:09:42.394Z,19.70
2023-05-12T05:12:09.684Z,19.50
2023-05-12T05:14:36.955Z,18.10
2023-05-12T05:17:04.334Z,16.10
2023-05-12T05:19:44.755Z,15.40
2023-05-12T05:22:19.032Z,15.00
2023-05-12T05:24:46.267Z,14.80
2023-05-12T05:27:14.050Z,14.80
2023-05-12T05:29:41.399Z,14.80
2023-05-12T05:32:08.579Z,14.80
2023-05-12T05:34:35.872Z,15.10
2023-05-12T05:37:03.659Z,15.30
2023-05-12T05:39:31.705Z,15.70
2023-05-12T05:41:58.955Z,15.80
2023-05-12T05:44:26.211Z,16.10
2023-05-12T05:46:53.491Z,16.50
2023-05-12T05:49:20.758Z,16.70
2023-05-12T05:51:47.962Z,17.40
2023-05-12T05:54:15.269Z,19.20
2023-05-12T05:56:42.505Z,22.70
2023-05-12T05:59:09.975Z,25.00
2023-05-12T06:01:37.233Z,25.10
2023-05-12T06:04:04.589Z,24.10
2023-05-12T06:06:31.860Z,26.30
2023-05-12T06:08:59.134Z,27.20
2023-05-12T06:11:26.637Z,26.30
2023-05-12T06:13:53.858Z,23.10
2023-05-12T06:16:21.221Z,20.20
2023-05-12T06:18:48.569Z,18.90
2023-05-12T06:21:15.943Z,18.90
2023-05-12T06:23:43.200Z,19.00
2023-05-12T06:26:10.516Z,18.90
2023-05-12T06:28:37.698Z,18.60
2023-05-12T06:31:08.669Z,19.10
2023-05-12T06:33:36.044Z,20.00
2023-05-12T06:36:03.563Z,20.20
2023-05-12T06:38:31.017Z,21.30
2023-05-12T06:40:58.884Z,21.40
2023-05-12T06:43:26.922Z,22.10
2023-05-12T06:45:54.066Z,23.10
2023-05-12T06:48:21.907Z,23.30
2023-05-12T06:50:49.296Z,22.80
2023-05-12T06:53:16.483Z,23.10
2023-05-12T06:55:44.483Z,25.50
2023-05-12T06:58:11.780Z,26.70
2023-05-12T07:00:39.104Z,26.50
2023-05-12T07:03:10.543Z,27.60
2023-05-12T07:05:38.044Z,29.40
2023-05-12T07:08:06.044Z,30.00
2023-05-12T07:10:33.464Z,31.20
2023-05-12T07:13:01.042Z,31.70
2023-05-12T07:15:29.247Z,32.20
2023-05-12T07:17:58.099Z,32.80
2023-05-12T07:20:25.422Z,31.30
2023-05-12T07:22:54.989Z,32.20
2023-05-12T07:25:22.707Z,30.60
2023-05-12T07:27:50.651Z,31.20
2023-05-12T07:30:17.964Z,30.40
2023-05-12T07:32:45.333Z,29.90
2023-05-12T07:35:13.216Z,29.00
2023-05-12T07:37:41.593Z,32.20
2023-05-12T07:40:09.432Z,32.70
2023-05-12T07:42:36.682Z,33.20
2023-05-12T07:45:04.387Z,32.70
2023-05-12T07:47:31.678Z,33.50
2023-05-12T07:49:58.984Z,32.80
2023-05-12T07:52:26.315Z,32.30
2023-05-12T07:54:53.617Z,31.50
2023-05-12T07:57:21.101Z,34.50
2023-05-12T07:59:48.506Z,35.40
2023-05-12T08:02:17.680Z,34.70
2023-05-12T08:04:44.994Z,34.60
2023-05-12T08:07:12.215Z,35.70
2023-05-12T08:09:39.535Z,35.70
2023-05-12T08:12:06.703Z,34.60
2023-05-12T08:14:33.901Z,35.70
2023-05-12T08:17:01.545Z,36.20
2023-05-12T08:19:28.785Z,36.00
2023-05-12T08:21:56.311Z,35.20
2023-05-12T08:24:23.865Z,34.80
2023-05-12T08:26:51.154Z,35.80
2023-05-12T08:29:18.398Z,35.90
2023-05-12T08:31:46.152Z,36.50
2023-05-12T08:34:13.437Z,37.00
2023-05-12T08:36:41.049Z,37.00
2023-05-12T08:39:11.748Z,37.20
2023-05-12T08:41:44.760Z,37.20
2023-05-12T08:44:13.366Z,35.50
2023-05-12T08:46:41.167Z,36.80
2023-05-12T08:49:12.703Z,37.80
2023-05-12T08:51:42.221Z,37.60
2023-05-12T08:54:10.724Z,38.50
2023-05-12T08:59:10.606Z,37.50
2023-05-12T09:01:38.651Z,36.60
2023-05-12T09:04:06.540Z,35.60
2023-05-12T09:06:34.411Z,36.70
2023-05-12T09:09:03.318Z,36.20
2023-05-12T09:11:30.665Z,36.20
2023-05-12T09:14:07.896Z,35.10
2023-05-12T09:16:43.545Z,36.30
2023-05-12T09:19:11.149Z,37.00
2023-05-12T09:21:38.485Z,35.00
2023-05-12T09:24:07.775Z,34.70
2023-05-12T09:26:48.240Z,35.20
2023-05-12T09:29:27.923Z,33.80
2023-05-12T09:31:59.859Z,37.90
2023-05-12T09:34:38.931Z,37.50
2023-05-12T09:37:08.029Z,34.20
2023-05-12T09:39:36.519Z,33.00
2023-05-12T09:42:04.069Z,34.20
2023-05-12T09:44:32.528Z,36.90
2023-05-12T09:47:10.689Z,36.70
2023-05-12T09:49:38.629Z,35.00
2023-05-12T09:52:06.394Z,35.80
2023-05-12T09:54:34.611Z,36.30
2023-05-12T09:57:05.053Z,36.40
2023-05-12T09:59:36.629Z,35.50
2023-05-12T10:02:06.539Z,32.70
2023-05-12T10:04:51.137Z,32.10
2023-05-12T10:07:22.785Z,30.60
2023-05-12T10:09:50.779Z,30.50
2023-05-12T10:12:18.069Z,30.60
2023-05-12T10:14:46.548Z,30.50
2023-05-12T10:17:14.865Z,29.50
2023-05-12T10:19:42.512Z,30.30
2023-05-12T10:22:16.135Z,31.20
2023-05-12T10:24:45.827Z,31.60
2023-05-12T10:27:16.237Z,30.20
2023-05-12T10:29:44.454Z,31.20
2023-05-12T10:32:11.905Z,30.70
2023-05-12T10:34:42.134Z,32.60
2023-05-12T10:37:11.480Z,31.70
2023-05-12T10:39:52.673Z,30.80
2023-05-12T10:42:26.225Z,29.00
2023-05-12T10:44:55.643Z,31.20
2023-05-12T10:47:36.271Z,33.40
2023-05-12T10:50:04.097Z,34.80
2023-05-12T10:52:31.280Z,35.80
2023-05-12T10:55:03.509Z,33.90
2023-05-12T10:57:32.448Z,33.10
2023-05-12T11:00:02.229Z,30.80
2023-05-12T11:02:37.324Z,31.70
2023-05-12T11:05:12.863Z,32.00
2023-05-12T11:07:41.832Z,33.10
2023-05-12T11:10:13.180Z,31.80
2023-05-12T11:12:43.785Z,32.30
2023-05-12T11:15:12.466Z,31.70
2023-05-12T11:17:41.426Z,31.00
2023-05-12T11:20:12.032Z,29.20
2023-05-12T11:22:41.281Z,30.40
2023-05-12T11:25:12.532Z,32.60
2023-05-12T11:27:46.068Z,32.80
2023-05-12T11:30:13.784Z,30.80
2023-05-12T11:32:41.377Z,29.60
2023-05-12T11:35:19.860Z,29.10
2023-05-12T11:37:47.712Z,30.60
2023-05-12T11:40:18.865Z,31.80
2023-05-12T11:42:52.355Z,30.90
2023-05-12T11:45:29.446Z,31.40
2023-05-12T11:48:14.291Z,29.60
2023-05-12T11:50:44.600Z,30.10
2023-05-12T11:53:15.174Z,31.40
2023-05-12T11:55:53.368Z,29.70
2023-05-12T11:58:22.861Z,31.70
2023-05-12T12:00:50.563Z,31.60
2023-05-12T12:03:18.091Z,31.80
2023-05-12T12:05:58.191Z,30.00
2023-05-12T12:08:25.392Z,30.30
2023-05-12T12:10:52.874Z,30.30
2023-05-12T12:13:24.758Z,29.20
2023-05-12T12:15:52.512Z,28.40
2023-05-12T12:18:19.961Z,28.10
2023-05-12T12:20:47.724Z,27.30
2023-05-12T12:23:15.228Z,26.40
2023-05-12T12:25:43.734Z,25.80
2023-05-12T12:28:11.222Z,25.30
2023-05-12T12:30:38.571Z,25.70
2023-05-12T12:33:05.777Z,25.50
2023-05-12T12:35:33.029Z,24.30
2023-05-12T12:38:00.837Z,23.40
2023-05-12T12:40:28.541Z,23.50
2023-05-12T12:42:56.133Z,24.00
2023-05-12T12:45:23.883Z,23.80
2023-05-12T12:47:55.089Z,23.50
2023-05-12T12:50:25.052Z,23.60
2023-05-12T12:52:53.158Z,23.40
2023-05-12T12:55:20.936Z,22.90
2023-05-12T12:57:48.919Z,22.50
2023-05-12T13:00:17.631Z,22.70
2023-05-12T13:02:45.518Z,22.70
2023-05-12T13:05:12.965Z,23.40
2023-05-12T13:07:40.179Z,23.40
2023-05-12T13:10:07.956Z,23.50
2023-05-12T13:12:36.847Z,24.20
2023-05-12T13:15:04.566Z,26.10
2023-05-12T13:17:32.150Z,26.80
2023-05-12T13:19:59.503Z,26.70
2023-05-12T13:22:29.061Z,25.50
2023-05-12T13:24:56.681Z,24.40
2023-05-12T13:27:23.907Z,23.90
2023-05-12T13:29:52.125Z,24.00
2023-05-12T13:32:20.967Z,23.50
2023-05-12T13:34:48.208Z,23.50
2023-05-12T13:37:15.399Z,22.50
2023-05-12T13:39:42.904Z,23.20
2023-05-12T13:42:10.112Z,23.10
2023-05-12T13:44:37.931Z,23.00
2023-05-12T13:47:08.068Z,23.50
2023-05-12T13:49:36.820Z,23.40
2023-05-12T13:52:04.239Z,23.20
2023-05-12T13:54:32.283Z,23.40
2023-05-12T13:56:59.766Z,23.10
2023-05-12T13:59:27.092Z,23.00
2023-05-12T14:01:54.422Z,23.10
2023-05-12T14:04:21.644Z,23.10
2023-05-12T14:06:49.067Z,23.00
2023-05-12T14:09:16.224Z,22.70
2023-05-12T14:11:43.544Z,22.80
2023-05-12T14:14:11.425Z,22.70
2023-05-12T14:16:38.865Z,23.00
2023-05-12T14:19:06.310Z,22.70
2023-05-12T14:21:33.599Z,23.00
2023-05-12T14:24:00.852Z,22.80
2023-05-12T14:26:28.744Z,22.70
2023-05-12T14:28:56.163Z,22.50
2023-05-12T14:31:23.451Z,22.50
2023-05-12T14:33:51.324Z,22.40
2023-05-12T14:36:18.571Z,22.50
2023-05-12T14:38:45.900Z,22.30
2023-05-12T14:41:13.356Z,22.10
2023-05-12T14:43:40.611Z,22.10
2023-05-12T14:46:08.975Z,22.30
2023-05-12T14:48:36.241Z,22.40
2023-05-12T14:51:03.798Z,22.40
2023-05-12T14:53:31.469Z,22.30
2023-05-12T14:55:58.870Z,22.10
2023-05-12T14:58:26.089Z,22.10
2023-05-12T15:00:53.493Z,22.10
2023-05-12T15:03:21.503Z,21.80
2023-05-12T15:06:04.852Z,21.70
2023-05-12T15:08:33.715Z,21.70
2023-05-12T15:11:00.901Z,21.90
2023-05-12T15:13:28.177Z,22.20
2023-05-12T15:15:56.925Z,22.40
2023-05-12T15:18:24.682Z,22.10
2023-05-12T15:20:52.182Z,21.80
2023-05-12T15:23:19.530Z,22.20
2023-05-12T15:25:47.042Z,22.20
2023-05-12T15:28:14.388Z,22.10
2023-05-12T15:30:42.106Z,22.10
2023-05-12T15:33:10.478Z,22.20
2023-05-12T15:35:40.103Z,22.10
2023-05-12T15:38:07.506Z,21.80
2023-05-12T15:40:34.699Z,21.70
2023-05-12T15:43:02.333Z,21.80
2023-05-12T15:45:29.627Z,21.70
2023-05-12T15:47:57.116Z,21.90
2023-05-12T15:50:24.897Z,21.60
2023-05-12T15:52:52.202Z,21.60
2023-05-12T15:55:19.888Z,21.40
2023-05-12T15:57:50.386Z,21.60
2023-05-12T16:00:18.696Z,21.60
2023-05-12T16:02:46.148Z,21.60
2023-05-12T16:05:13.979Z,21.70
2023-05-12T16:07:41.162Z,21.60
2023-05-12T16:10:09.200Z,21.50
2023-05-12T16:12:36.590Z,21.30
2023-05-12T16:15:05.097Z,21.40
2023-05-12T16:17:32.689Z,21.30
2023-05-12T16:20:00.017Z,21.30
2023-05-12T16:22:27.607Z,21.40
2023-05-12T16:24:56.988Z,21.20
2023-05-12T16:27:24.265Z,21.20
2023-05-12T16:29:53.698Z,21.20
2023-05-12T16:32:21.084Z,21.10
2023-05-12T16:34:48.615Z,21.10
2023-05-12T16:37:16.451Z,21.10
2023-05-12T16:39:43.762Z,21.10
2023-05-12T16:42:11.008Z,20.90
2023-05-12T16:44:38.267Z,20.90
2023-05-12T16:47:05.924Z,20.90
2023-05-12T16:49:33.132Z,20.90
2023-05-12T16:52:00.373Z,20.80
2023-05-12T16:54:27.647Z,20.90
2023-05-12T16:56:56.600Z,20.90
2023-05-12T16:59:23.878Z,20.80
2023-05-12T17:01:51.218Z,20.60
2023-05-12T17:04:18.551Z,20.60
2023-05-12T17:06:45.904Z,20.60
2023-05-12T17:09:13.042Z,20.50
2023-05-12T17:11:40.179Z,20.40
2023-05-12T17:14:07.790Z,20.40
2023-05-12T17:16:35.532Z,20.40
2023-05-12T17:21:33.882Z,20.40
2023-05-12T17:24:01.089Z,20.50
2023-05-12T17:26:28.958Z,20.40
2023-05-12T17:28:56.345Z,20.30
2023-05-12T17:31:23.673Z,20.30
2023-05-12T17:33:51.235Z,20.20
2023-05-12T17:36:18.861Z,20.10
2023-05-12T17:38:47.013Z,20.10
2023-05-12T17:41:16.264Z,20.00
2023-05-12T17:43:43.492Z,19.90
2023-05-12T17:46:10.830Z,19.90
2023-05-12T17:48:38.853Z,19.70
2023-05-12T17:51:06.601Z,19.70
2023-05-12T17:53:34.370Z,19.60
2023-05-12T17:56:01.956Z,19.60
2023-05-12T17:58:29.264Z,19.50
2023-05-12T18:00:56.768Z,19.50
2023-05-12T18:03:24.210Z,19.40
2023-05-12T18:05:53.311Z,19.30
2023-05-12T18:08:21.778Z,19.20
2023-05-12T18:10:49.597Z,19.20
2023-05-12T18:13:16.869Z,19.10
2023-05-12T18:15:44.396Z,19.00
2023-05-12T18:18:12.040Z,18.90
2023-05-12T18:20:39.340Z,18.80
2023-05-12T18:23:07.028Z,18.80
2023-05-12T18:25:34.234Z,18.70
2023-05-12T18:28:01.656Z,18.60
2023-05-12T18:30:29.116Z,18.50
2023-05-12T18:32:56.560Z,18.40
2023-05-12T18:35:24.928Z,18.40
2023-05-12T18:37:52.254Z,18.40
2023-05-12T18:40:19.752Z,18.30
2023-05-12T18:42:47.769Z,18.10
2023-05-12T18:45:15.802Z,18.20
2023-05-12T18:47:43.916Z,18.10
2023-05-12T18:50:11.457Z,18.00
2023-05-12T18:52:38.739Z,17.90
2023-05-12T18:55:06.421Z,17.90
2023-05-12T18:57:33.845Z,17.70
2023-05-12T19:00:01.097Z,17.60
2023-05-12T19:02:28.361Z,17.60
2023-05-12T19:04:55.922Z,17.50
2023-05-12T19:07:23.583Z,17.50
2023-05-12T19:09:50.799Z,17.30
2023-05-12T19:12:18.561Z,17.30
2023-05-12T19:14:46.077Z,17.10
2023-05-12T19:17:13.633Z,17.10
2023-05-12T19:19:41.008Z,17.10
2023-05-12T19:22:08.422Z,17.10
2023-05-12T19:24:37.871Z,17.00
2023-05-12T19:27:05.223Z,16.90
2023-05-12T19:29:33.150Z,16.80
2023-05-12T19:32:00.536Z,16.80
2023-05-12T19:34:29.663Z,16.70
2023-05-12T19:37:00.863Z,16.70
2023-05-12T19:39:28.841Z,16.60
2023-05-12T19:41:56.069Z,16.60
2023-05-12T19:44:23.325Z,16.60
2023-05-12T19:46:51.028Z,16.60
2023-05-12T19:49:18.254Z,16.50
2023-05-12T19:51:46.086Z,16.40
2023-05-12T19:54:13.528Z,16.50
2023-05-12T19:56:40.767Z,16.30
2023-05-12T19:59:07.896Z,16.30
2023-05-12T20:01:35.112Z,16.20
2023-05-12T20:04:02.944Z,16.20
2023-05-12T20:06:31.028Z,16.20
2023-05-12T20:08:58.157Z,16.10
2023-05-12T20:11:25.366Z,15.90
2023-05-12T20:13:52.572Z,15.90
2023-05-12T20:16:19.831Z,15.80
2023-05-12T20:18:50.927Z,15.80
2023-05-12T20:21:18.242Z,15.70
2023-05-12T20:23:45.728Z,15.70
2023-05-12T20:26:13.426Z,15.60
2023-05-12T20:28:41.319Z,15.70
2023-05-12T20:31:10.368Z,15.60
2023-05-12T20:33:37.649Z,15.50
2023-05-12T20:36:06.218Z,15.50
2023-05-12T20:38:33.416Z,15.50
2023-05-12T20:41:05.387Z,15.40
2023-05-12T20:43:33.078Z,15.30
2023-05-12T20:46:03.065Z,15.30
2023-05-12T20:48:30.366Z,15.20
2023-05-12T20:50:57.714Z,15.30
2023-05-12T20:53:25.112Z,15.20
2023-05-12T20:55:52.288Z,15.00
2023-05-12T20:58:19.430Z,15.10
2023-05-12T21:00:46.870Z,15.00
2023-05-12T21:03:17.263Z,14.90
2023-05-12T21:05:48.176Z,14.80
2023-05-12T21:08:16.031Z,14.70
2023-05-12T21:10:43.258Z,14.80
2023-05-12T21:13:10.622Z,14.70
2023-05-12T21:15:37.769Z,14.60
2023-05-12T21:18:05.109Z,14.60
2023-05-12T21:20:32.304Z,14.50
2023-05-12T21:22:59.467Z,14.60
2023-05-12T21:25:26.659Z,14.60
2023-05-12T21:27:53.923Z,14.60
2023-05-12T21:30:21.779Z,14.60
2023-05-12T21:32:49.136Z,14.50
2023-05-12T21:35:16.466Z,14.60
2023-05-12T21:37:43.628Z,14.60
2023-05-12T21:40:11.246Z,14.50
2023-05-12T21:42:38.496Z,14.50
2023-05-12T21:45:06.426Z,14.40
2023-05-12T21:47:33.817Z,14.40
2023-05-12T21:50:01.483Z,14.40
2023-05-12T21:52:28.610Z,14.30
2023-05-12T21:54:56.059Z,14.30
2023-05-12T21:57:23.282Z,14.30
2023-05-12T21:59:50.476Z,14.30
2023-05-12T22:02:17.790Z,14.20
2023-05-12T22:04:45.095Z,14.30
2023-05-12T22:07:12.411Z,14.20
2023-05-12T22:09:39.675Z,14.20
2023-05-12T22:12:07.580Z,14.10
2023-05-12T22:14:34.739Z,14.10
2023-05-12T22:17:02.554Z,14.10
2023-05-12T22:19:30.988Z,14.10
2023-05-12T22:21:58.401Z,14.10
2023-05-12T22:24:25.706Z,14.10
2023-05-12T22:26:52.951Z,14.10
2023-05-12T22:29:20.184Z,14.20
2023-05-12T22:31:47.702Z,14.20
2023-05-12T22:34:15.091Z,14.20
2023-05-12T22:36:42.351Z,14.20
2023-05-12T22:39:09.704Z,14.20
2023-05-12T22:41:37.050Z,14.10
2023-05-12T22:44:04.439Z,14.20
2023-05-12T22:46:31.639Z,14.20
2023-05-12T22:48:59.819Z,14.10
2023-05-12T22:51:27.079Z,14.20
2023-05-12T22:53:54.344Z,14.20
2023-05-12T22:56:21.788Z,14.10
2023-05-12T22:58:48.979Z,14.10
2023-05-12T23:01:16.437Z,14.00
2023-05-12T23:03:43.695Z,14.00
2023-05-12T23:06:11.352Z,14.10
2023-05-12T23:08:38.560Z,14.00
2023-05-12T23:11:05.748Z,14.00
2023-05-12T23:13:32.899Z,13.90
2023-05-12T23:16:00.216Z,13.80
2023-05-12T23:18:27.447Z,13.80
2023-05-12T23:20:54.606Z,13.70
2023-05-12T23:23:21.786Z,13.70
2023-05-12T23:25:49.652Z,13.60
2023-05-12T23:28:17.110Z,13.40
2023-05-12T23:30:44.258Z,13.40
2023-05-12T23:33:11.733Z,13.40
2023-05-12T23:35:39.162Z,13.40
2023-05-12T23:38:06.495Z,13.40
2023-05-12T23:40:38.996Z,13.30
2023-05-12T23:43:06.866Z,13.30
2023-05-12T23:45:34.868Z,13.20
2023-05-12T23:48:02.123Z,13.20
2023-05-12T23:50:29.356Z,13.20
2023-05-12T23:52:56.727Z,13.20
2023-05-12T23:55:24.018Z,13.10
2023-05-12T23:57:51.239Z,13.00
